CST,Max TemperatureF,Mean TemperatureF,Min TemperatureF,Max Dew PointF,MeanDew PointF,Min DewpointF,Max Humidity, Mean Humidity, Min Humidity, Max Sea Level PressureIn, Mean Sea Level PressureIn, Min Sea Level PressureIn, Max VisibilityMiles, Mean VisibilityMiles, Min VisibilityMiles, Max Wind SpeedMPH, Mean Wind SpeedMPH, Max Gust SpeedMPH,PrecipitationIn, CloudCover, Events, WindDirDegrees
2014-2-1,70,58,46,60,53,44,97,81,61,30.06,30.01,29.98,10,9,5,14,7,,0.00,7,,158
2014-2-2,70,56,39,68,60,38,100,96,90,30.03,29.95,29.85,10,4,0,20,8,25,0.69,8,Fog-Rain-Thunderstorm,166
2014-2-3,41,38,35,39,36,34,97,93,86,30.19,30.12,30.03,10,8,2,17,10,24,0.07,8,Rain,8
2014-2-4,68,54,39,66,50,39,100,96,93,30.09,29.94,29.77,10,4,0,17,8,28,0.98,8,Fog-Rain-Thunderstorm,158
2014-2-5,44,38,30,43,33,23,97,80,61,30.36,30.21,30.03,10,10,7,18,12,25,0.00,7,,341
2014-2-6,37,34,28,26,23,22,82,71,62,30.44,30.36,30.32,10,10,8,15,9,20,0.01,4,,9
2014-2-7,51,38,26,35,28,23,88,67,46,30.38,30.29,30.18,10,9,5,12,6,17,0.00,3,,30
2014-2-8,60,46,33,45,38,32,96,75,51,30.26,30.19,30.11,10,10,6,9,4,,0.01,5,,18
2014-2-9,68,54,41,51,46,39,97,84,49,30.18,30.11,30.04,10,6,2,10,1,,0.00,5,,222
2014-2-10,53,46,39,51,44,37,100,93,86,30.16,30.10,30.06,10,4,1,12,4,,0.47,8,Rain,15
2014-2-11,39,36,33,38,34,32,96,93,89,30.18,30.10,30.04,10,4,1,14,9,22,1.53,8,Rain,21
2014-2-12,37,34,32,35,33,30,97,94,92,30.04,29.98,29.92,10,5,2,15,10,23,0.22,8,Rain,338
2014-2-13,55,42,30,35,31,28,96,77,43,30.08,30.02,29.97,10,8,3,13,7,18,0.00,2,,320
2014-2-14,63,46,28,53,42,27,92,73,41,29.99,29.91,29.81,10,10,7,18,6,30,0.00,3,,229
2014-2-15,61,48,36,33,29,20,76,52,21,30.23,30.13,30.00,10,10,10,13,7,,0.00,0,,360
2014-2-16,71,53,35,52,44,32,93,72,41,30.17,30.13,30.08,10,10,8,10,2,,0.00,2,,188
2014-2-17,73,62,51,62,57,49,97,80,57,30.13,30.10,30.04,10,8,2,16,6,22,0.00,7,,199
2014-2-18,75,68,60,63,60,56,100,86,53,30.15,30.09,30.03,10,6,0,12,5,17,0.00,5,Fog,202
2014-2-19,78,68,57,63,60,53,97,84,43,30.08,30.02,29.93,10,7,2,20,6,22,0.00,7,,188
2014-2-20,81,69,57,66,62,53,100,86,44,29.95,29.88,29.81,10,6,0,30,10,40,4.29,8,Fog-Rain-Thunderstorm,205
2014-2-21,64,52,41,49,34,24,86,56,21,30.14,30.09,30.01,10,10,7,22,9,31,0.01,1,Rain,354
2014-2-22,62,50,39,42,36,30,89,60,30,30.16,30.08,30.01,10,10,10,10,2,,0.00,0,,142
2014-2-23,66,60,53,62,56,42,97,90,66,30.04,30.00,29.94,10,6,0,7,2,,0.11,8,Fog-Rain-Thunderstorm,120
2014-2-24,72,63,54,60,53,43,100,78,46,30.17,30.08,30.03,10,7,0,10,3,18,0.00,6,Fog,30
2014-2-25,68,61,54,56,54,52,97,83,59,30.09,30.00,29.93,10,7,2,15,4,26,0.46,6,Rain-Thunderstorm,7
2014-2-26,55,44,34,53,39,23,97,81,58,30.11,30.00,29.91,10,8,2,17,11,26,0.59,5,Rain,4
2014-2-27,53,40,28,29,21,15,85,55,23,30.15,30.08,30.02,10,10,10,10,6,,0.00,0,,4
2014-2-28,63,46,30,45,33,24,85,57,30,30.07,30.02,29.97,10,10,10,15,5,22,0.00,3,,158